createdAt,value
2019-03-04T00:02:19.102Z,59.13
2019-03-04T00:04:45.767Z,59.21
2019-03-04T00:07:12.612Z,58.68
2019-03-04T00:09:39.319Z,58.59
2019-03-04T00:12:06.024Z,59.65
2019-03-04T00:14:32.638Z,59.88
2019-03-04T00:16:59.250Z,59.55
2019-03-04T00:19:25.934Z,60.03
2019-03-04T00:21:52.524Z,59.57
2019-03-04T00:24:19.151Z,59.77
2019-03-04T00:26:46.153Z,59.17
2019-03-04T00:29:12.728Z,59.25
2019-03-04T00:31:39.821Z,58.85
2019-03-04T00:34:06.542Z,59.06
2019-03-04T00:36:33.154Z,58.59
2019-03-04T00:38:59.753Z,58.36
2019-03-04T00:41:26.427Z,59.44
2019-03-04T00:43:53.115Z,59.27
2019-03-04T00:46:19.761Z,59.51
2019-03-04T00:48:47.454Z,60.40
2019-03-04T00:51:14.086Z,59.96
2019-03-04T00:53:41.738Z,59.67
2019-03-04T00:56:08.435Z,60.40
2019-03-04T00:58:35.127Z,60.10
2019-03-04T01:01:01.777Z,59.80
2019-03-04T01:03:28.541Z,60.97
2019-03-04T01:05:55.166Z,60.39
2019-03-04T01:08:21.840Z,61.37
2019-03-04T01:10:48.519Z,60.92
2019-03-04T01:13:15.142Z,61.64
2019-03-04T01:15:41.871Z,61.93
2019-03-04T01:18:08.537Z,61.86
2019-03-04T01:20:35.366Z,61.75
2019-03-04T01:23:02.056Z,61.75
2019-03-04T01:25:28.794Z,61.41
2019-03-04T01:27:55.408Z,61.55
2019-03-04T01:30:22.966Z,61.74
2019-03-04T01:32:50.339Z,61.69
2019-03-04T01:35:17.059Z,62.11
2019-03-04T01:37:43.781Z,62.06
2019-03-04T01:40:13.115Z,62.56
2019-03-04T01:42:39.711Z,62.40
2019-03-04T01:45:09.347Z,62.31
2019-03-04T01:47:36.053Z,62.47
2019-03-04T01:50:03.074Z,62.43
2019-03-04T01:52:29.691Z,62.49
2019-03-04T01:54:57.478Z,62.37
2019-03-04T01:57:24.087Z,62.67
2019-03-04T01:59:50.713Z,62.48
2019-03-04T02:02:17.375Z,62.58
2019-03-04T02:04:44.002Z,62.26
2019-03-04T02:07:11.472Z,62.19
2019-03-04T02:09:38.477Z,62.13
2019-03-04T02:12:05.170Z,62.13
2019-03-04T02:14:31.771Z,62.65
2019-03-04T02:16:58.430Z,62.35
2019-03-04T02:19:26.111Z,63.14
2019-03-04T02:21:52.768Z,62.88
2019-03-04T02:24:23.827Z,63.00
2019-03-04T02:26:51.534Z,62.72
2019-03-04T02:29:18.214Z,62.87
2019-03-04T02:31:44.912Z,62.99
2019-03-04T02:34:11.537Z,63.07
2019-03-04T02:36:38.201Z,63.19
2019-03-04T02:39:06.137Z,63.50
2019-03-04T02:41:33.933Z,63.63
2019-03-04T02:44:00.583Z,63.70
2019-03-04T02:46:27.260Z,63.81
2019-03-04T02:48:54.022Z,63.90
2019-03-04T02:51:20.761Z,63.95
2019-03-04T02:53:47.502Z,64.20
2019-03-04T02:56:14.213Z,64.44
2019-03-04T02:58:40.909Z,64.69
2019-03-04T03:01:07.610Z,64.77
2019-03-04T03:03:34.237Z,64.80
2019-03-04T03:06:00.922Z,64.84
2019-03-04T03:08:27.661Z,65.00
2019-03-04T03:10:54.417Z,64.90
2019-03-04T03:13:21.097Z,65.05
2019-03-04T03:15:47.825Z,64.95
2019-03-04T03:18:14.440Z,64.71
2019-03-04T03:20:41.068Z,64.67
2019-03-04T03:23:07.799Z,64.95
2019-03-04T03:25:34.396Z,64.96
2019-03-04T03:28:01.012Z,64.81
2019-03-04T03:30:27.730Z,64.56
2019-03-04T03:32:54.426Z,64.83
2019-03-04T03:35:21.019Z,64.54
2019-03-04T03:37:47.695Z,64.50
2019-03-04T03:40:16.031Z,64.67
2019-03-04T03:42:42.722Z,64.52
2019-03-04T03:45:09.992Z,64.54
2019-03-04T03:47:36.605Z,64.56
2019-03-04T03:50:09.890Z,64.54
2019-03-04T03:52:36.550Z,64.30
2019-03-04T03:55:06.333Z,64.11
2019-03-04T03:57:32.976Z,64.01
2019-03-04T03:59:59.689Z,63.78
2019-03-04T04:02:26.313Z,63.63
2019-03-04T04:04:52.977Z,63.47
2019-03-04T04:07:19.646Z,63.93
2019-03-04T04:09:46.415Z,63.82
2019-03-04T04:12:13.130Z,64.42
2019-03-04T04:14:39.856Z,64.14
2019-03-04T04:17:06.452Z,64.07
2019-03-04T04:19:33.116Z,63.36
2019-03-04T04:21:59.864Z,63.31
2019-03-04T04:24:26.498Z,63.21
2019-03-04T04:26:53.217Z,63.83
2019-03-04T04:29:19.895Z,63.48
2019-03-04T04:31:46.523Z,63.54
2019-03-04T04:34:13.160Z,63.09
2019-03-04T04:36:39.856Z,62.93
2019-03-04T04:39:06.663Z,62.92
2019-03-04T04:41:33.723Z,63.32
2019-03-04T04:44:00.415Z,63.05
2019-03-04T04:46:47.748Z,63.03
2019-03-04T04:49:15.403Z,62.90
2019-03-04T04:51:42.118Z,62.91
2019-03-04T04:54:08.713Z,63.34
2019-03-04T04:56:35.355Z,63.50
2019-03-04T04:59:02.083Z,63.39
2019-03-04T05:01:28.712Z,63.47
2019-03-04T05:03:55.362Z,63.67
2019-03-04T05:06:24.065Z,64.06
2019-03-04T05:08:50.711Z,63.91
2019-03-04T05:11:17.557Z,64.02
2019-03-04T05:13:44.179Z,64.31
2019-03-04T05:16:10.868Z,65.46
2019-03-04T05:18:37.599Z,64.75
2019-03-04T05:21:04.405Z,64.22
2019-03-04T05:23:31.155Z,64.08
2019-03-04T05:25:58.882Z,64.00
2019-03-04T05:28:25.740Z,64.26
2019-03-04T05:30:52.350Z,64.31
2019-03-04T05:33:19.061Z,64.90
2019-03-04T05:35:45.746Z,65.22
2019-03-04T05:38:12.452Z,64.98
2019-03-04T05:40:39.165Z,64.88
2019-03-04T05:43:05.867Z,64.46
2019-03-04T05:45:32.567Z,64.63
2019-03-04T05:47:59.284Z,65.12
2019-03-04T05:50:27.074Z,65.58
2019-03-04T05:52:53.804Z,65.32
2019-03-04T05:55:21.416Z,66.01
2019-03-04T05:57:48.133Z,65.67
2019-03-04T06:00:23.079Z,66.71
2019-03-04T06:02:51.303Z,66.53
2019-03-04T06:05:20.029Z,66.32
2019-03-04T06:07:51.007Z,66.54
2019-03-04T06:10:17.726Z,66.45
2019-03-04T06:12:44.468Z,66.56
2019-03-04T06:15:16.131Z,66.62
2019-03-04T06:17:42.780Z,66.38
2019-03-04T06:20:11.911Z,66.36
2019-03-04T06:22:38.505Z,67.15
2019-03-04T06:25:10.513Z,66.43
2019-03-04T06:27:37.213Z,66.34
2019-03-04T06:30:13.497Z,66.31
2019-03-04T06:32:40.145Z,66.12
2019-03-04T06:35:08.764Z,66.06
2019-03-04T06:37:35.541Z,66.00
2019-03-04T06:40:04.265Z,65.54
2019-03-04T06:42:30.986Z,63.41
2019-03-04T06:44:57.592Z,63.15
2019-03-04T06:47:24.315Z,63.18
2019-03-04T06:49:51.004Z,62.42
2019-03-04T06:52:17.706Z,62.80
2019-03-04T06:54:51.052Z,61.32
2019-03-04T06:57:17.794Z,60.68
2019-03-04T07:00:15.726Z,60.00
2019-03-04T07:02:44.054Z,59.99
2019-03-04T07:05:32.587Z,59.63
2019-03-04T07:07:59.289Z,59.40
2019-03-04T07:10:25.990Z,59.35
2019-03-04T07:12:52.703Z,59.56
2019-03-04T07:15:19.812Z,59.67
2019-03-04T07:17:46.675Z,59.84
2019-03-04T07:20:18.030Z,59.71
2019-03-04T07:22:44.700Z,59.55
2019-03-04T07:25:11.536Z,59.03
2019-03-04T07:27:38.238Z,58.80
2019-03-04T07:30:13.763Z,58.79
2019-03-04T07:32:40.498Z,57.92
2019-03-04T07:35:08.106Z,57.45
2019-03-04T07:37:34.760Z,57.41
2019-03-04T07:40:01.543Z,57.59
2019-03-04T07:42:31.258Z,57.56
2019-03-04T07:44:57.783Z,57.04
2019-03-04T07:47:24.451Z,56.67
2019-03-04T07:49:51.052Z,56.35
2019-03-04T07:52:18.674Z,55.92
2019-03-04T07:54:45.398Z,56.03
2019-03-04T07:57:12.002Z,55.68
2019-03-04T07:59:38.591Z,55.21
2019-03-04T08:02:05.412Z,55.11
2019-03-04T08:04:32.001Z,55.16
2019-03-04T08:07:21.777Z,54.70
2019-03-04T08:09:55.211Z,53.88
2019-03-04T08:12:43.504Z,53.80
2019-03-04T08:15:10.230Z,53.17
2019-03-04T08:17:36.898Z,53.67
2019-03-04T08:20:05.408Z,53.24
2019-03-04T08:22:32.128Z,52.88
2019-03-04T08:24:58.838Z,53.47
2019-03-04T08:27:25.422Z,53.79
2019-03-04T08:29:52.101Z,53.39
2019-03-04T08:32:18.790Z,52.48
2019-03-04T08:34:45.483Z,52.14
2019-03-04T08:37:12.196Z,52.00
2019-03-04T08:39:38.897Z,50.96
2019-03-04T08:42:05.510Z,50.70
2019-03-04T08:44:32.229Z,51.07
2019-03-04T08:46:58.962Z,51.31
2019-03-04T08:49:25.779Z,51.47
2019-03-04T08:51:52.514Z,51.96
2019-03-04T08:54:19.209Z,52.33
2019-03-04T08:56:45.952Z,51.87
2019-03-04T08:59:12.662Z,50.95
2019-03-04T09:01:39.269Z,51.95
2019-03-04T09:04:05.967Z,49.71
2019-03-04T09:06:34.171Z,49.18
2019-03-04T09:09:00.822Z,48.72
2019-03-04T09:11:27.509Z,49.20
2019-03-04T09:13:54.131Z,48.72
2019-03-04T09:16:20.910Z,48.46
2019-03-04T09:18:47.636Z,47.99
2019-03-04T09:21:14.250Z,47.77
2019-03-04T09:23:40.941Z,47.15
2019-03-04T09:26:10.326Z,46.69
2019-03-04T09:28:37.114Z,46.90
2019-03-04T09:31:04.827Z,46.62
2019-03-04T09:33:31.529Z,46.45
2019-03-04T09:35:58.140Z,45.33
2019-03-04T09:38:24.806Z,45.58
2019-03-04T09:40:51.484Z,44.77
2019-03-04T09:43:18.183Z,44.35
2019-03-04T09:45:44.924Z,44.21
2019-03-04T09:48:12.110Z,44.45
2019-03-04T09:50:38.970Z,44.23
2019-03-04T09:53:05.640Z,43.46
2019-03-04T09:55:32.395Z,44.00
2019-03-04T09:57:59.021Z,44.27
2019-03-04T10:00:28.547Z,42.87
2019-03-04T10:03:15.747Z,42.36
2019-03-04T10:05:54.998Z,41.83
2019-03-04T10:08:32.829Z,42.38
2019-03-04T10:11:03.012Z,42.99
2019-03-04T10:13:36.150Z,42.35
2019-03-04T10:16:19.101Z,41.28
2019-03-04T10:19:01.870Z,41.15
2019-03-04T10:21:34.758Z,40.55
2019-03-04T10:24:23.161Z,41.05
2019-03-04T10:27:02.535Z,41.70
2019-03-04T10:30:03.280Z,40.83
2019-03-04T10:32:59.674Z,40.73
2019-03-04T10:35:35.817Z,40.97
2019-03-04T10:38:22.972Z,39.41
2019-03-04T10:41:02.576Z,39.20
2019-03-04T10:43:51.202Z,39.32
2019-03-04T10:46:24.500Z,39.41
2019-03-04T10:48:51.219Z,38.84
2019-03-04T10:51:18.745Z,38.80
2019-03-04T10:53:45.582Z,38.78
2019-03-04T10:56:12.202Z,39.20
2019-03-04T10:58:38.861Z,38.77
2019-03-04T11:01:05.948Z,37.81
2019-03-04T11:03:32.572Z,38.89
2019-03-04T11:05:59.217Z,38.67
2019-03-04T11:08:25.933Z,38.71
2019-03-04T11:10:52.531Z,39.19
2019-03-04T11:13:19.207Z,38.88
2019-03-04T11:15:45.892Z,39.58
2019-03-04T11:18:12.532Z,39.42
2019-03-04T11:20:39.206Z,40.16
2019-03-04T11:23:06.035Z,40.72
2019-03-04T11:25:33.894Z,40.57
2019-03-04T11:28:00.578Z,40.99
2019-03-04T11:30:29.108Z,41.35
2019-03-04T11:32:55.722Z,41.66
2019-03-04T11:35:22.401Z,42.11
2019-03-04T11:37:49.083Z,42.32
2019-03-04T11:40:28.991Z,42.34
2019-03-04T11:42:55.703Z,43.15
2019-03-04T11:45:22.400Z,42.44
2019-03-04T11:47:49.013Z,42.97
2019-03-04T11:50:16.863Z,42.60
2019-03-04T11:52:43.567Z,43.07
2019-03-04T11:55:18.840Z,42.08
2019-03-04T11:57:45.526Z,41.67
2019-03-04T12:00:16.021Z,41.80
2019-03-04T12:02:43.753Z,42.50
2019-03-04T12:05:11.627Z,41.54
2019-03-04T12:07:38.339Z,40.01
2019-03-04T12:10:10.712Z,39.91
2019-03-04T12:12:37.373Z,39.94
2019-03-04T12:15:07.465Z,40.07
2019-03-04T12:17:34.223Z,39.64
2019-03-04T12:20:00.952Z,39.50
2019-03-04T12:22:27.720Z,39.66
2019-03-04T12:24:54.440Z,39.30
2019-03-04T12:27:21.072Z,37.94
2019-03-04T12:29:47.825Z,37.99
2019-03-04T12:32:16.204Z,37.58
2019-03-04T12:34:42.862Z,37.38
2019-03-04T12:37:10.535Z,37.39
2019-03-04T12:39:37.167Z,37.28
2019-03-04T12:42:03.922Z,37.67
2019-03-04T12:44:30.635Z,37.73
2019-03-04T12:46:57.243Z,37.69
2019-03-04T12:49:23.924Z,37.79
2019-03-04T12:51:50.616Z,36.68
2019-03-04T12:54:17.256Z,35.30
2019-03-04T12:56:43.879Z,35.54
2019-03-04T12:59:10.621Z,34.91
2019-03-04T13:01:37.370Z,35.04
2019-03-04T13:04:04.059Z,34.55
2019-03-04T13:06:30.789Z,34.59
2019-03-04T13:08:57.383Z,34.91
2019-03-04T13:11:24.040Z,34.73
2019-03-04T13:13:50.714Z,34.91
2019-03-04T13:16:17.428Z,34.76
2019-03-04T13:18:44.141Z,35.07
2019-03-04T13:21:10.880Z,35.54
2019-03-04T13:23:37.568Z,36.15
2019-03-04T13:26:04.218Z,36.56
2019-03-04T13:28:30.890Z,37.13
2019-03-04T13:30:57.605Z,37.23
2019-03-04T13:33:24.326Z,37.75
2019-03-04T13:35:51.003Z,37.73
2019-03-04T13:38:17.691Z,37.91
2019-03-04T13:40:44.386Z,38.38
2019-03-04T13:43:11.082Z,38.68
2019-03-04T13:45:37.707Z,38.72
2019-03-04T13:48:04.697Z,38.84
2019-03-04T13:50:34.174Z,39.48
2019-03-04T13:53:00.884Z,39.20
2019-03-04T13:55:27.594Z,39.96
2019-03-04T13:57:54.316Z,39.73
2019-03-04T14:00:31.801Z,39.05
2019-03-04T14:02:58.471Z,38.85
2019-03-04T14:05:25.231Z,38.73
2019-03-04T14:07:51.826Z,38.48
2019-03-04T14:10:21.293Z,38.57
2019-03-04T14:12:47.966Z,39.40
2019-03-04T14:15:17.829Z,39.69
2019-03-04T14:17:44.972Z,40.11
2019-03-04T14:20:12.405Z,40.45
2019-03-04T14:22:40.469Z,40.91
2019-03-04T14:25:11.077Z,41.27
2019-03-04T14:27:37.776Z,41.40
2019-03-04T14:30:10.426Z,40.88
2019-03-04T14:32:37.111Z,41.45
2019-03-04T14:35:04.911Z,41.59
2019-03-04T14:37:31.653Z,42.00
2019-03-04T14:39:58.362Z,42.03
2019-03-04T14:42:25.077Z,41.98
2019-03-04T14:44:51.800Z,42.23
2019-03-04T14:47:18.464Z,42.35
2019-03-04T14:49:45.248Z,42.00
2019-03-04T14:52:11.935Z,42.17
2019-03-04T14:54:38.644Z,42.36
2019-03-04T14:57:05.365Z,42.47
2019-03-04T14:59:31.983Z,42.34
2019-03-04T15:01:58.666Z,42.17
2019-03-04T15:04:25.352Z,42.18
2019-03-04T15:06:52.016Z,42.54
2019-03-04T15:09:18.714Z,42.79
2019-03-04T15:11:45.410Z,43.14
2019-03-04T15:14:32.070Z,43.39
2019-03-04T15:17:03.434Z,43.45
2019-03-04T15:19:27.305Z,44.09
2019-03-04T15:21:53.920Z,44.78
2019-03-04T15:24:20.603Z,45.07
2019-03-04T15:26:47.267Z,45.25
2019-03-04T15:29:13.920Z,45.08
2019-03-04T15:31:40.542Z,44.96
2019-03-04T15:34:07.239Z,44.85
2019-03-04T15:36:33.836Z,44.82
2019-03-04T15:39:00.494Z,44.96
2019-03-04T15:41:27.234Z,45.33
2019-03-04T15:43:53.882Z,44.96
2019-03-04T15:46:20.546Z,45.01
2019-03-04T15:48:48.244Z,45.13
2019-03-04T15:51:14.859Z,45.13
2019-03-04T15:53:43.489Z,45.24
2019-03-04T15:56:10.115Z,45.75
2019-03-04T15:58:37.226Z,45.72
2019-03-04T16:01:04.738Z,45.71
2019-03-04T16:03:31.459Z,46.08
2019-03-04T16:05:58.082Z,46.46
2019-03-04T16:08:24.753Z,46.42
2019-03-04T16:10:51.438Z,46.71
2019-03-04T16:13:19.259Z,47.00
2019-03-04T16:15:46.052Z,47.03
2019-03-04T16:18:12.881Z,47.31
2019-03-04T16:20:39.491Z,47.26
2019-03-04T16:23:06.185Z,47.33
2019-03-04T16:25:32.848Z,47.40
2019-03-04T16:28:18.828Z,47.47
2019-03-04T16:30:47.760Z,47.92
2019-03-04T16:33:14.477Z,47.62
2019-03-04T16:35:41.077Z,47.55
2019-03-04T16:38:07.760Z,47.55
2019-03-04T16:40:34.450Z,47.21
2019-03-04T16:43:01.171Z,47.37
2019-03-04T16:45:27.873Z,47.49
2019-03-04T16:47:54.549Z,47.59
2019-03-04T16:50:23.897Z,47.97
2019-03-04T16:52:56.333Z,47.83
2019-03-04T16:55:23.037Z,48.04
2019-03-04T16:57:49.658Z,48.45
2019-03-04T17:00:18.442Z,48.71
2019-03-04T17:02:45.190Z,49.28
2019-03-04T17:05:14.431Z,49.42
2019-03-04T17:07:41.416Z,49.81
2019-03-04T17:10:10.538Z,49.77
2019-03-04T17:12:37.527Z,50.09
2019-03-04T17:15:08.664Z,50.07
2019-03-04T17:17:35.590Z,50.04
2019-03-04T17:20:04.239Z,50.64
2019-03-04T17:22:32.684Z,51.42
2019-03-04T17:24:59.411Z,51.63
2019-03-04T17:27:26.152Z,52.08
2019-03-04T17:29:54.927Z,52.17
2019-03-04T17:32:21.625Z,52.51
2019-03-04T17:34:48.373Z,53.75
2019-03-04T17:37:15.133Z,53.92
2019-03-04T17:39:42.202Z,54.28
2019-03-04T17:42:09.146Z,54.26
2019-03-04T17:44:35.859Z,54.56
2019-03-04T17:47:02.476Z,54.52
2019-03-04T17:49:29.178Z,54.50
2019-03-04T17:51:55.864Z,54.46
2019-03-04T17:54:22.578Z,54.55
2019-03-04T17:56:49.291Z,54.11
2019-03-04T17:59:16.120Z,54.15
2019-03-04T18:01:42.763Z,54.71
2019-03-04T18:04:09.446Z,54.92
2019-03-04T18:06:36.226Z,55.33
2019-03-04T18:09:05.443Z,56.70
2019-03-04T18:11:34.328Z,56.37
2019-03-04T18:14:01.034Z,56.52
2019-03-04T18:16:27.661Z,56.30
2019-03-04T18:18:54.289Z,56.53
2019-03-04T18:21:22.847Z,56.75
2019-03-04T18:23:49.458Z,56.54
2019-03-04T18:26:25.969Z,57.03
2019-03-04T18:29:02.134Z,57.65
2019-03-04T18:31:53.400Z,57.51
2019-03-04T18:34:45.432Z,58.16
2019-03-04T18:37:30.690Z,58.37
2019-03-04T18:40:27.183Z,59.13
2019-03-04T18:42:57.421Z,60.12
2019-03-04T18:45:44.288Z,60.68
2019-03-04T18:48:20.243Z,60.98
2019-03-04T18:50:46.983Z,61.12
2019-03-04T18:53:13.649Z,61.87
2019-03-04T18:55:42.160Z,61.11
2019-03-04T18:58:08.797Z,60.68
2019-03-04T19:00:35.516Z,60.69
2019-03-04T19:03:02.211Z,60.79
2019-03-04T19:05:28.972Z,60.57
2019-03-04T19:07:55.626Z,60.38
2019-03-04T19:10:22.266Z,60.58
2019-03-04T19:12:48.892Z,60.42
2019-03-04T19:15:15.606Z,59.58
2019-03-04T19:17:42.220Z,58.63
2019-03-04T19:20:11.886Z,59.03
2019-03-04T19:22:40.385Z,59.12
2019-03-04T19:25:07.434Z,60.01
2019-03-04T19:27:34.244Z,60.43
2019-03-04T19:30:00.917Z,59.97
2019-03-04T19:32:27.679Z,60.62
2019-03-04T19:34:54.373Z,59.48
2019-03-04T19:37:21.117Z,59.26
2019-03-04T19:39:47.882Z,59.15
2019-03-04T19:42:14.541Z,59.34
2019-03-04T19:44:41.239Z,58.74
2019-03-04T19:47:08.082Z,58.20
2019-03-04T19:49:34.864Z,58.95
2019-03-04T19:52:01.699Z,59.55
2019-03-04T19:54:28.332Z,59.75
2019-03-04T19:56:54.960Z,59.92
2019-03-04T19:59:21.961Z,59.20
2019-03-04T20:01:48.563Z,58.71
2019-03-04T20:04:15.147Z,59.21
2019-03-04T20:06:41.883Z,59.12
2019-03-04T20:09:09.526Z,59.95
2019-03-04T20:11:37.720Z,58.36
2019-03-04T20:14:04.645Z,59.63
2019-03-04T20:16:31.294Z,60.48
2019-03-04T20:18:57.988Z,62.60
2019-03-04T20:21:24.650Z,65.33
2019-03-04T20:23:51.282Z,68.62
2019-03-04T20:26:17.910Z,71.71
2019-03-04T20:28:44.619Z,72.76
2019-03-04T20:31:11.639Z,73.29
2019-03-04T20:33:38.391Z,74.21
2019-03-04T20:36:05.128Z,74.61
2019-03-04T20:38:38.218Z,75.69
2019-03-04T20:41:04.958Z,75.35
2019-03-04T20:43:31.607Z,76.06
2019-03-04T20:45:58.235Z,75.93
2019-03-04T20:48:25.955Z,76.72
2019-03-04T20:50:52.574Z,77.21
2019-03-04T20:53:19.256Z,77.05
2019-03-04T20:55:45.933Z,76.54
2019-03-04T20:58:12.576Z,76.78
2019-03-04T21:00:40.219Z,76.55
2019-03-04T21:03:07.645Z,76.74
2019-03-04T21:05:35.725Z,77.26
2019-03-04T21:08:02.477Z,75.63
2019-03-04T21:10:29.400Z,75.88
2019-03-04T21:12:58.037Z,76.21
2019-03-04T21:15:25.588Z,75.57
2019-03-04T21:17:52.312Z,75.17
2019-03-04T21:20:18.997Z,75.12
2019-03-04T21:22:46.485Z,73.95
2019-03-04T21:25:34.875Z,73.26
2019-03-04T21:28:05.223Z,72.94
2019-03-04T21:30:58.591Z,72.68
2019-03-04T21:33:31.859Z,72.41
2019-03-04T21:36:24.514Z,72.50
2019-03-04T21:38:53.999Z,72.92
2019-03-04T21:41:30.315Z,72.87
2019-03-04T21:44:00.588Z,72.10
2019-03-04T21:46:47.289Z,73.03
2019-03-04T21:49:14.006Z,72.70
2019-03-04T21:52:20.479Z,73.18
2019-03-04T21:54:46.340Z,73.63
2019-03-04T21:57:16.705Z,72.96
2019-03-04T21:59:43.595Z,72.85
2019-03-04T22:02:22.839Z,72.23
2019-03-04T22:04:49.671Z,71.70
2019-03-04T22:07:16.361Z,72.96
2019-03-04T22:09:42.959Z,72.52
2019-03-04T22:12:11.720Z,72.95
2019-03-04T22:14:38.386Z,73.63
2019-03-04T22:17:05.125Z,72.51
2019-03-04T22:19:32.964Z,72.75
2019-03-04T22:21:59.669Z,73.16
2019-03-04T22:24:26.354Z,73.18
2019-03-04T22:26:53.036Z,72.68
2019-03-04T22:29:19.754Z,71.32
2019-03-04T22:31:46.454Z,71.89
2019-03-04T22:34:13.097Z,72.12
2019-03-04T22:36:39.803Z,72.04
2019-03-04T22:39:07.604Z,72.21
2019-03-04T22:41:34.572Z,72.11
2019-03-04T22:44:01.269Z,72.94
2019-03-04T22:46:27.947Z,73.07
2019-03-04T22:48:54.572Z,72.55
2019-03-04T22:51:21.278Z,72.21
2019-03-04T22:53:47.857Z,73.01
2019-03-04T22:56:14.638Z,72.33
2019-03-04T22:58:41.309Z,71.61
2019-03-04T23:01:30.989Z,71.75
2019-03-04T23:04:01.344Z,71.74
2019-03-04T23:06:31.620Z,72.27
2019-03-04T23:08:58.339Z,72.34
2019-03-04T23:11:30.033Z,71.89
2019-03-04T23:14:00.163Z,71.89
2019-03-04T23:19:45.656Z,70.88
2019-03-04T23:22:12.364Z,71.10
2019-03-04T23:24:39.073Z,70.84
2019-03-04T23:27:05.869Z,70.92
2019-03-04T23:29:32.467Z,71.14
2019-03-04T23:31:59.130Z,71.51
2019-03-04T23:34:25.826Z,71.07
2019-03-04T23:36:52.524Z,70.78
2019-03-04T23:39:19.223Z,70.75
2019-03-04T23:41:45.992Z,71.48
2019-03-04T23:44:12.603Z,71.21
2019-03-04T23:46:39.331Z,71.34
2019-03-04T23:49:06.016Z,71.39
2019-03-04T23:51:32.726Z,71.39
2019-03-04T23:53:59.422Z,71.28
2019-03-04T23:56:26.125Z,71.10
2019-03-04T23:58:52.744Z,71.59
